sensor_id;sensor_type;location;lat;lon;timestamp;P1;durP1;ratioP1;P2;durP2;ratioP2
23390;SDS011;11868;45.606;5.302;2023-03-21T00:02:10;6.93;;;5.30;;
23390;SDS011;11868;45.606;5.302;2023-03-21T00:04:35;6.05;;;4.88;;
23390;SDS011;11868;45.606;5.302;2023-03-21T00:07:00;7.10;;;5.35;;
23390;SDS011;11868;45.606;5.302;2023-03-21T00:09:26;7.43;;;5.22;;
23390;SDS011;11868;45.606;5.302;2023-03-21T00:11:52;7.95;;;5.60;;
23390;SDS011;11868;45.606;5.302;2023-03-21T00:14:17;7.28;;;4.90;;
23390;SDS011;11868;45.606;5.302;2023-03-21T00:16:44;8.50;;;5.13;;
23390;SDS011;11868;45.606;5.302;2023-03-21T00:19:14;9.13;;;5.38;;
23390;SDS011;11868;45.606;5.302;2023-03-21T00:21:40;6.70;;;4.95;;
23390;SDS011;11868;45.606;5.302;2023-03-21T00:24:07;9.32;;;4.57;;
23390;SDS011;11868;45.606;5.302;2023-03-21T00:26:32;9.00;;;4.95;;
23390;SDS011;11868;45.606;5.302;2023-03-21T00:28:58;5.50;;;4.22;;
23390;SDS011;11868;45.606;5.302;2023-03-21T00:31:23;5.63;;;4.30;;
23390;SDS011;11868;45.606;5.302;2023-03-21T00:33:49;6.20;;;4.22;;
23390;SDS011;11868;45.606;5.302;2023-03-21T00:36:14;5.63;;;4.13;;
23390;SDS011;11868;45.606;5.302;2023-03-21T00:38:40;10.57;;;4.90;;
23390;SDS011;11868;45.606;5.302;2023-03-21T00:41:06;6.32;;;4.25;;
23390;SDS011;11868;45.606;5.302;2023-03-21T00:43:33;7.45;;;4.40;;
23390;SDS011;11868;45.606;5.302;2023-03-21T00:45:58;10.68;;;5.07;;
23390;SDS011;11868;45.606;5.302;2023-03-21T00:48:24;7.38;;;4.65;;
23390;SDS011;11868;45.606;5.302;2023-03-21T00:50:51;6.32;;;4.70;;
23390;SDS011;11868;45.606;5.302;2023-03-21T00:53:17;6.28;;;4.60;;
23390;SDS011;11868;45.606;5.302;2023-03-21T00:55:42;5.72;;;4.20;;
23390;SDS011;11868;45.606;5.302;2023-03-21T00:58:08;4.35;;;3.78;;
23390;SDS011;11868;45.606;5.302;2023-03-21T01:00:33;6.22;;;4.18;;
23390;SDS011;11868;45.606;5.302;2023-03-21T01:05:34;6.13;;;4.32;;
23390;SDS011;11868;45.606;5.302;2023-03-21T01:10:48;7.72;;;4.50;;
23390;SDS011;11868;45.606;5.302;2023-03-21T01:13:15;7.43;;;4.50;;
23390;SDS011;11868;45.606;5.302;2023-03-21T01:15:46;5.35;;;4.65;;
23390;SDS011;11868;45.606;5.302;2023-03-21T01:18:14;8.85;;;5.15;;
23390;SDS011;11868;45.606;5.302;2023-03-21T01:20:41;7.45;;;5.25;;
23390;SDS011;11868;45.606;5.302;2023-03-21T01:23:08;8.50;;;5.72;;
23390;SDS011;11868;45.606;5.302;2023-03-21T01:25:34;9.98;;;6.00;;
23390;SDS011;11868;45.606;5.302;2023-03-21T01:27:59;8.27;;;5.72;;
23390;SDS011;11868;45.606;5.302;2023-03-21T01:30:24;8.43;;;6.03;;
23390;SDS011;11868;45.606;5.302;2023-03-21T01:32:50;7.90;;;5.35;;
23390;SDS011;11868;45.606;5.302;2023-03-21T01:35:16;10.05;;;6.03;;
23390;SDS011;11868;45.606;5.302;2023-03-21T01:37:41;8.15;;;5.20;;
23390;SDS011;11868;45.606;5.302;2023-03-21T01:40:07;8.95;;;5.30;;
23390;SDS011;11868;45.606;5.302;2023-03-21T01:42:37;12.77;;;5.40;;
23390;SDS011;11868;45.606;5.302;2023-03-21T01:45:04;8.73;;;5.05;;
23390;SDS011;11868;45.606;5.302;2023-03-21T01:47:50;7.70;;;5.05;;
23390;SDS011;11868;45.606;5.302;2023-03-21T01:50:15;9.05;;;4.97;;
23390;SDS011;11868;45.606;5.302;2023-03-21T01:52:41;7.13;;;5.43;;
23390;SDS011;11868;45.606;5.302;2023-03-21T01:55:08;6.72;;;5.10;;
23390;SDS011;11868;45.606;5.302;2023-03-21T01:57:37;7.85;;;5.70;;
23390;SDS011;11868;45.606;5.302;2023-03-21T02:00:05;7.60;;;4.93;;
23390;SDS011;11868;45.606;5.302;2023-03-21T02:02:36;7.28;;;5.30;;
23390;SDS011;11868;45.606;5.302;2023-03-21T02:05:23;7.43;;;5.50;;
23390;SDS011;11868;45.606;5.302;2023-03-21T02:07:54;8.80;;;5.00;;
23390;SDS011;11868;45.606;5.302;2023-03-21T02:10:20;6.38;;;5.07;;
23390;SDS011;11868;45.606;5.302;2023-03-21T02:12:46;7.70;;;4.80;;
23390;SDS011;11868;45.606;5.302;2023-03-21T02:15:11;7.00;;;4.60;;
23390;SDS011;11868;45.606;5.302;2023-03-21T02:37:04;10.30;;;7.32;;
23390;SDS011;11868;45.606;5.302;2023-03-21T02:45:25;11.25;;;7.00;;
23390;SDS011;11868;45.606;5.302;2023-03-21T02:47:56;10.57;;;6.90;;
23390;SDS011;11868;45.606;5.302;2023-03-21T02:50:25;10.07;;;6.30;;
23390;SDS011;11868;45.606;5.302;2023-03-21T02:53:01;13.10;;;7.30;;
23390;SDS011;11868;45.606;5.302;2023-03-21T02:55:28;10.65;;;6.30;;
23390;SDS011;11868;45.606;5.302;2023-03-21T02:57:56;10.05;;;6.10;;
23390;SDS011;11868;45.606;5.302;2023-03-21T03:00:27;9.45;;;5.30;;
23390;SDS011;11868;45.606;5.302;2023-03-21T03:02:54;5.97;;;4.97;;
23390;SDS011;11868;45.606;5.302;2023-03-21T03:05:21;7.28;;;4.72;;
23390;SDS011;11868;45.606;5.302;2023-03-21T03:13:32;7.07;;;4.25;;
23390;SDS011;11868;45.606;5.302;2023-03-21T03:16:10;6.45;;;4.13;;
23390;SDS011;11868;45.606;5.302;2023-03-21T03:21:16;6.50;;;4.00;;
23390;SDS011;11868;45.606;5.302;2023-03-21T03:23:47;7.90;;;4.40;;
23390;SDS011;11868;45.606;5.302;2023-03-21T03:26:16;6.00;;;4.18;;
23390;SDS011;11868;45.606;5.302;2023-03-21T03:28:44;6.05;;;4.90;;
23390;SDS011;11868;45.606;5.302;2023-03-21T03:31:13;7.50;;;5.22;;
23390;SDS011;11868;45.606;5.302;2023-03-21T03:33:42;8.32;;;5.07;;
23390;SDS011;11868;45.606;5.302;2023-03-21T03:36:10;6.97;;;5.40;;
23390;SDS011;11868;45.606;5.302;2023-03-21T03:38:38;6.75;;;5.57;;
23390;SDS011;11868;45.606;5.302;2023-03-21T03:41:10;8.40;;;5.78;;
23390;SDS011;11868;45.606;5.302;2023-03-21T03:43:39;8.45;;;6.18;;
23390;SDS011;11868;45.606;5.302;2023-03-21T03:46:18;6.65;;;5.30;;
23390;SDS011;11868;45.606;5.302;2023-03-21T03:48:54;7.78;;;5.57;;
23390;SDS011;11868;45.606;5.302;2023-03-21T03:51:31;7.55;;;5.28;;
23390;SDS011;11868;45.606;5.302;2023-03-21T03:54:11;7.25;;;5.03;;
23390;SDS011;11868;45.606;5.302;2023-03-21T03:56:38;9.37;;;5.17;;
23390;SDS011;11868;45.606;5.302;2023-03-21T03:59:04;7.50;;;5.10;;
23390;SDS011;11868;45.606;5.302;2023-03-21T04:01:31;6.75;;;5.60;;
23390;SDS011;11868;45.606;5.302;2023-03-21T04:03:58;8.18;;;5.95;;
23390;SDS011;11868;45.606;5.302;2023-03-21T04:06:24;8.43;;;6.15;;
23390;SDS011;11868;45.606;5.302;2023-03-21T04:08:52;8.23;;;6.15;;
23390;SDS011;11868;45.606;5.302;2023-03-21T04:11:18;9.88;;;5.57;;
23390;SDS011;11868;45.606;5.302;2023-03-21T04:13:44;10.52;;;6.32;;
23390;SDS011;11868;45.606;5.302;2023-03-21T04:16:09;8.27;;;6.15;;
23390;SDS011;11868;45.606;5.302;2023-03-21T04:18:36;8.85;;;6.25;;
23390;SDS011;11868;45.606;5.302;2023-03-21T04:21:05;7.95;;;6.40;;
23390;SDS011;11868;45.606;5.302;2023-03-21T04:23:32;8.93;;;6.20;;
23390;SDS011;11868;45.606;5.302;2023-03-21T04:25:59;9.52;;;5.53;;
23390;SDS011;11868;45.606;5.302;2023-03-21T04:28:25;8.23;;;5.60;;
23390;SDS011;11868;45.606;5.302;2023-03-21T04:30:50;9.05;;;5.15;;
23390;SDS011;11868;45.606;5.302;2023-03-21T04:33:15;6.05;;;5.15;;
23390;SDS011;11868;45.606;5.302;2023-03-21T04:35:41;8.32;;;5.38;;
23390;SDS011;11868;45.606;5.302;2023-03-21T04:38:09;11.68;;;5.22;;
23390;SDS011;11868;45.606;5.302;2023-03-21T04:40:35;7.50;;;5.10;;
23390;SDS011;11868;45.606;5.302;2023-03-21T04:43:00;7.93;;;5.38;;
23390;SDS011;11868;45.606;5.302;2023-03-21T04:45:25;7.05;;;4.88;;
23390;SDS011;11868;45.606;5.302;2023-03-21T04:47:51;8.48;;;5.05;;
23390;SDS011;11868;45.606;5.302;2023-03-21T04:50:16;7.85;;;5.35;;
23390;SDS011;11868;45.606;5.302;2023-03-21T04:52:41;7.50;;;4.93;;
23390;SDS011;11868;45.606;5.302;2023-03-21T04:55:07;6.07;;;5.18;;
23390;SDS011;11868;45.606;5.302;2023-03-21T04:57:34;7.00;;;5.13;;
23390;SDS011;11868;45.606;5.302;2023-03-21T05:00:00;7.07;;;4.93;;
23390;SDS011;11868;45.606;5.302;2023-03-21T05:02:25;6.05;;;4.78;;
23390;SDS011;11868;45.606;5.302;2023-03-21T05:04:51;7.60;;;5.03;;
23390;SDS011;11868;45.606;5.302;2023-03-21T05:07:16;7.75;;;5.22;;
23390;SDS011;11868;45.606;5.302;2023-03-21T05:09:42;5.35;;;4.57;;
23390;SDS011;11868;45.606;5.302;2023-03-21T05:12:07;8.45;;;4.78;;
23390;SDS011;11868;45.606;5.302;2023-03-21T05:14:32;6.25;;;4.65;;
23390;SDS011;11868;45.606;5.302;2023-03-21T05:16:58;9.30;;;5.32;;
23390;SDS011;11868;45.606;5.302;2023-03-21T05:19:30;30.15;;;17.02;;
23390;SDS011;11868;45.606;5.302;2023-03-21T05:22:05;18.90;;;11.38;;
23390;SDS011;11868;45.606;5.302;2023-03-21T05:24:36;13.10;;;8.48;;
23390;SDS011;11868;45.606;5.302;2023-03-21T05:27:05;12.68;;;6.85;;
23390;SDS011;11868;45.606;5.302;2023-03-21T05:29:31;10.75;;;6.85;;
23390;SDS011;11868;45.606;5.302;2023-03-21T05:31:58;9.80;;;6.55;;
23390;SDS011;11868;45.606;5.302;2023-03-21T05:34:23;12.23;;;6.15;;
23390;SDS011;11868;45.606;5.302;2023-03-21T05:36:49;8.75;;;6.32;;
23390;SDS011;11868;45.606;5.302;2023-03-21T05:39:15;9.77;;;6.72;;
23390;SDS011;11868;45.606;5.302;2023-03-21T05:41:40;10.55;;;6.03;;
23390;SDS011;11868;45.606;5.302;2023-03-21T05:44:06;9.57;;;6.50;;
23390;SDS011;11868;45.606;5.302;2023-03-21T05:46:31;8.35;;;5.38;;
23390;SDS011;11868;45.606;5.302;2023-03-21T05:48:56;9.15;;;5.32;;
23390;SDS011;11868;45.606;5.302;2023-03-21T05:51:22;8.80;;;5.25;;
23390;SDS011;11868;45.606;5.302;2023-03-21T05:53:47;7.32;;;5.70;;
23390;SDS011;11868;45.606;5.302;2023-03-21T05:56:13;21.35;;;13.43;;
23390;SDS011;11868;45.606;5.302;2023-03-21T05:58:38;30.95;;;19.00;;
23390;SDS011;11868;45.606;5.302;2023-03-21T06:01:04;28.67;;;18.95;;
23390;SDS011;11868;45.606;5.302;2023-03-21T06:03:29;15.70;;;10.15;;
23390;SDS011;11868;45.606;5.302;2023-03-21T06:05:54;10.73;;;7.70;;
23390;SDS011;11868;45.606;5.302;2023-03-21T06:08:20;9.18;;;6.20;;
23390;SDS011;11868;45.606;5.302;2023-03-21T06:10:45;7.00;;;5.78;;
23390;SDS011;11868;45.606;5.302;2023-03-21T06:13:10;14.80;;;8.73;;
23390;SDS011;11868;45.606;5.302;2023-03-21T06:15:36;8.48;;;5.28;;
23390;SDS011;11868;45.606;5.302;2023-03-21T06:18:01;6.20;;;4.97;;
23390;SDS011;11868;45.606;5.302;2023-03-21T06:20:26;6.55;;;4.80;;
23390;SDS011;11868;45.606;5.302;2023-03-21T06:22:52;8.55;;;5.90;;
23390;SDS011;11868;45.606;5.302;2023-03-21T06:25:17;8.63;;;5.72;;
23390;SDS011;11868;45.606;5.302;2023-03-21T06:27:43;6.85;;;5.35;;
23390;SDS011;11868;45.606;5.302;2023-03-21T06:30:08;7.68;;;5.57;;
23390;SDS011;11868;45.606;5.302;2023-03-21T06:32:34;8.73;;;5.15;;
23390;SDS011;11868;45.606;5.302;2023-03-21T06:35:00;6.03;;;4.60;;
23390;SDS011;11868;45.606;5.302;2023-03-21T06:37:25;6.38;;;4.32;;
23390;SDS011;11868;45.606;5.302;2023-03-21T06:39:51;6.85;;;5.10;;
23390;SDS011;11868;45.606;5.302;2023-03-21T06:42:16;8.82;;;5.30;;
23390;SDS011;11868;45.606;5.302;2023-03-21T06:44:42;5.53;;;4.45;;
23390;SDS011;11868;45.606;5.302;2023-03-21T06:47:07;12.25;;;5.40;;
23390;SDS011;11868;45.606;5.302;2023-03-21T06:49:33;7.30;;;5.20;;
23390;SDS011;11868;45.606;5.302;2023-03-21T06:51:58;9.10;;;4.60;;
23390;SDS011;11868;45.606;5.302;2023-03-21T06:54:24;7.85;;;4.90;;
23390;SDS011;11868;45.606;5.302;2023-03-21T06:56:49;7.43;;;6.07;;
23390;SDS011;11868;45.606;5.302;2023-03-21T06:59:15;9.05;;;6.90;;
23390;SDS011;11868;45.606;5.302;2023-03-21T07:01:40;8.07;;;6.25;;
23390;SDS011;11868;45.606;5.302;2023-03-21T07:04:07;8.18;;;6.00;;
23390;SDS011;11868;45.606;5.302;2023-03-21T07:06:33;7.95;;;6.15;;
23390;SDS011;11868;45.606;5.302;2023-03-21T07:08:58;11.00;;;6.10;;
23390;SDS011;11868;45.606;5.302;2023-03-21T07:11:24;8.18;;;5.95;;
23390;SDS011;11868;45.606;5.302;2023-03-21T07:13:50;9.30;;;5.57;;
23390;SDS011;11868;45.606;5.302;2023-03-21T07:16:16;10.45;;;5.53;;
23390;SDS011;11868;45.606;5.302;2023-03-21T07:18:42;9.25;;;5.93;;
23390;SDS011;11868;45.606;5.302;2023-03-21T07:21:07;9.15;;;5.97;;
23390;SDS011;11868;45.606;5.302;2023-03-21T07:23:33;10.52;;;5.20;;
23390;SDS011;11868;45.606;5.302;2023-03-21T07:25:59;7.07;;;5.60;;
23390;SDS011;11868;45.606;5.302;2023-03-21T07:28:25;8.25;;;5.97;;
23390;SDS011;11868;45.606;5.302;2023-03-21T07:30:52;8.07;;;6.20;;
23390;SDS011;11868;45.606;5.302;2023-03-21T07:33:19;8.43;;;6.10;;
23390;SDS011;11868;45.606;5.302;2023-03-21T07:35:44;7.05;;;5.45;;
23390;SDS011;11868;45.606;5.302;2023-03-21T07:38:10;13.88;;;6.10;;
23390;SDS011;11868;45.606;5.302;2023-03-21T07:40:35;8.45;;;5.22;;
23390;SDS011;11868;45.606;5.302;2023-03-21T07:43:00;6.65;;;5.53;;
23390;SDS011;11868;45.606;5.302;2023-03-21T07:45:26;8.55;;;5.70;;
23390;SDS011;11868;45.606;5.302;2023-03-21T07:47:52;7.72;;;5.35;;
23390;SDS011;11868;45.606;5.302;2023-03-21T07:50:17;7.95;;;5.82;;
23390;SDS011;11868;45.606;5.302;2023-03-21T07:52:42;8.05;;;5.80;;
23390;SDS011;11868;45.606;5.302;2023-03-21T07:55:08;9.40;;;6.00;;
23390;SDS011;11868;45.606;5.302;2023-03-21T07:57:34;7.43;;;4.93;;
23390;SDS011;11868;45.606;5.302;2023-03-21T08:00:00;6.50;;;4.95;;
23390;SDS011;11868;45.606;5.302;2023-03-21T08:02:27;9.13;;;5.35;;
23390;SDS011;11868;45.606;5.302;2023-03-21T08:04:52;7.50;;;5.05;;
23390;SDS011;11868;45.606;5.302;2023-03-21T08:07:17;8.10;;;5.45;;
23390;SDS011;11868;45.606;5.302;2023-03-21T08:09:43;8.80;;;5.38;;
23390;SDS011;11868;45.606;5.302;2023-03-21T08:12:09;8.50;;;4.78;;
23390;SDS011;11868;45.606;5.302;2023-03-21T08:14:34;6.00;;;4.65;;
23390;SDS011;11868;45.606;5.302;2023-03-21T08:17:01;5.95;;;4.50;;
23390;SDS011;11868;45.606;5.302;2023-03-21T08:19:27;8.23;;;5.07;;
23390;SDS011;11868;45.606;5.302;2023-03-21T08:21:52;11.02;;;5.20;;
23390;SDS011;11868;45.606;5.302;2023-03-21T08:24:18;8.20;;;4.97;;
23390;SDS011;11868;45.606;5.302;2023-03-21T08:26:43;8.60;;;5.20;;
23390;SDS011;11868;45.606;5.302;2023-03-21T08:29:10;8.40;;;5.47;;
23390;SDS011;11868;45.606;5.302;2023-03-21T08:31:39;6.32;;;4.97;;
23390;SDS011;11868;45.606;5.302;2023-03-21T08:34:05;7.25;;;5.22;;
23390;SDS011;11868;45.606;5.302;2023-03-21T08:36:31;9.10;;;5.60;;
23390;SDS011;11868;45.606;5.302;2023-03-21T08:38:57;7.43;;;4.78;;
23390;SDS011;11868;45.606;5.302;2023-03-21T08:41:29;7.00;;;4.60;;
23390;SDS011;11868;45.606;5.302;2023-03-21T08:43:55;8.68;;;4.72;;
23390;SDS011;11868;45.606;5.302;2023-03-21T08:46:21;5.35;;;4.30;;
23390;SDS011;11868;45.606;5.302;2023-03-21T08:48:46;7.63;;;4.63;;
23390;SDS011;11868;45.606;5.302;2023-03-21T08:51:11;6.35;;;4.68;;
23390;SDS011;11868;45.606;5.302;2023-03-21T08:53:37;6.53;;;4.82;;
23390;SDS011;11868;45.606;5.302;2023-03-21T08:56:02;8.63;;;5.20;;
23390;SDS011;11868;45.606;5.302;2023-03-21T08:58:28;4.80;;;4.20;;
23390;SDS011;11868;45.606;5.302;2023-03-21T09:00:53;7.53;;;4.90;;
23390;SDS011;11868;45.606;5.302;2023-03-21T09:03:18;8.52;;;4.60;;
23390;SDS011;11868;45.606;5.302;2023-03-21T09:05:44;5.68;;;4.50;;
23390;SDS011;11868;45.606;5.302;2023-03-21T09:08:10;6.90;;;4.55;;
23390;SDS011;11868;45.606;5.302;2023-03-21T09:10:37;5.80;;;4.07;;
23390;SDS011;11868;45.606;5.302;2023-03-21T09:13:02;6.90;;;4.57;;
23390;SDS011;11868;45.606;5.302;2023-03-21T09:15:27;7.07;;;4.65;;
23390;SDS011;11868;45.606;5.302;2023-03-21T09:17:53;7.80;;;4.55;;
23390;SDS011;11868;45.606;5.302;2023-03-21T09:20:23;7.20;;;4.07;;
23390;SDS011;11868;45.606;5.302;2023-03-21T09:22:57;11.63;;;4.65;;
23390;SDS011;11868;45.606;5.302;2023-03-21T09:25:23;7.18;;;4.85;;
23390;SDS011;11868;45.606;5.302;2023-03-21T09:27:48;6.72;;;4.78;;
23390;SDS011;11868;45.606;5.302;2023-03-21T09:30:17;4.53;;;3.70;;
23390;SDS011;11868;45.606;5.302;2023-03-21T09:32:44;5.43;;;4.60;;
23390;SDS011;11868;45.606;5.302;2023-03-21T09:35:18;4.93;;;4.18;;
23390;SDS011;11868;45.606;5.302;2023-03-21T09:37:45;5.60;;;4.35;;
23390;SDS011;11868;45.606;5.302;2023-03-21T09:45:34;5.28;;;4.10;;
23390;SDS011;11868;45.606;5.302;2023-03-21T09:48:03;6.38;;;4.88;;
23390;SDS011;11868;45.606;5.302;2023-03-21T09:50:32;6.15;;;4.57;;
23390;SDS011;11868;45.606;5.302;2023-03-21T09:53:04;6.38;;;4.80;;
23390;SDS011;11868;45.606;5.302;2023-03-21T09:55:33;7.18;;;4.25;;
23390;SDS011;11868;45.606;5.302;2023-03-21T10:00:31;8.70;;;4.22;;
23390;SDS011;11868;45.606;5.302;2023-03-21T10:03:02;6.80;;;4.50;;
23390;SDS011;11868;45.606;5.302;2023-03-21T10:05:31;5.10;;;3.78;;
23390;SDS011;11868;45.606;5.302;2023-03-21T10:08:05;6.07;;;4.10;;
23390;SDS011;11868;45.606;5.302;2023-03-21T10:10:44;6.13;;;3.80;;
23390;SDS011;11868;45.606;5.302;2023-03-21T10:13:14;6.60;;;4.40;;
23390;SDS011;11868;45.606;5.302;2023-03-21T10:15:42;7.15;;;4.15;;
23390;SDS011;11868;45.606;5.302;2023-03-21T10:18:10;8.27;;;4.60;;
23390;SDS011;11868;45.606;5.302;2023-03-21T10:20:40;6.35;;;4.18;;
23390;SDS011;11868;45.606;5.302;2023-03-21T10:23:07;7.18;;;4.35;;
23390;SDS011;11868;45.606;5.302;2023-03-21T10:25:41;4.95;;;4.30;;
23390;SDS011;11868;45.606;5.302;2023-03-21T10:28:12;6.00;;;4.50;;
23390;SDS011;11868;45.606;5.302;2023-03-21T10:30:42;9.43;;;4.43;;
23390;SDS011;11868;45.606;5.302;2023-03-21T10:33:12;6.07;;;4.30;;
23390;SDS011;11868;45.606;5.302;2023-03-21T10:35:40;4.88;;;3.95;;
23390;SDS011;11868;45.606;5.302;2023-03-21T10:38:12;7.47;;;4.30;;
23390;SDS011;11868;45.606;5.302;2023-03-21T10:40:40;5.82;;;4.32;;
23390;SDS011;11868;45.606;5.302;2023-03-21T10:43:19;5.40;;;4.35;;
23390;SDS011;11868;45.606;5.302;2023-03-21T10:45:55;7.72;;;4.03;;
23390;SDS011;11868;45.606;5.302;2023-03-21T10:48:21;5.60;;;4.25;;
23390;SDS011;11868;45.606;5.302;2023-03-21T10:50:48;7.72;;;4.10;;
23390;SDS011;11868;45.606;5.302;2023-03-21T10:53:26;7.47;;;4.22;;
23390;SDS011;11868;45.606;5.302;2023-03-21T10:55:55;5.45;;;4.15;;
23390;SDS011;11868;45.606;5.302;2023-03-21T10:58:24;7.28;;;4.38;;
23390;SDS011;11868;45.606;5.302;2023-03-21T11:00:55;5.78;;;4.47;;
23390;SDS011;11868;45.606;5.302;2023-03-21T11:03:29;9.93;;;4.30;;
23390;SDS011;11868;45.606;5.302;2023-03-21T11:06:21;6.57;;;4.20;;
23390;SDS011;11868;45.606;5.302;2023-03-21T11:08:48;4.90;;;4.25;;
23390;SDS011;11868;45.606;5.302;2023-03-21T11:12:01;9.35;;;4.53;;
23390;SDS011;11868;45.606;5.302;2023-03-21T11:14:06;5.05;;;3.90;;
23390;SDS011;11868;45.606;5.302;2023-03-21T11:16:40;6.43;;;3.97;;
23390;SDS011;11868;45.606;5.302;2023-03-21T11:19:17;12.02;;;4.43;;
23390;SDS011;11868;45.606;5.302;2023-03-21T11:21:44;6.75;;;4.18;;
23390;SDS011;11868;45.606;5.302;2023-03-21T11:24:14;6.70;;;4.68;;
23390;SDS011;11868;45.606;5.302;2023-03-21T11:26:41;9.00;;;4.40;;
23390;SDS011;11868;45.606;5.302;2023-03-21T11:32:10;5.03;;;3.38;;
23390;SDS011;11868;45.606;5.302;2023-03-21T11:34:46;4.40;;;2.92;;
23390;SDS011;11868;45.606;5.302;2023-03-21T11:37:18;5.13;;;2.55;;
23390;SDS011;11868;45.606;5.302;2023-03-21T11:39:53;2.83;;;2.60;;
23390;SDS011;11868;45.606;5.302;2023-03-21T11:42:40;3.97;;;2.72;;
23390;SDS011;11868;45.606;5.302;2023-03-21T11:45:12;5.65;;;2.58;;
23390;SDS011;11868;45.606;5.302;2023-03-21T11:47:40;4.38;;;2.50;;
23390;SDS011;11868;45.606;5.302;2023-03-21T11:50:13;3.05;;;2.65;;
23390;SDS011;11868;45.606;5.302;2023-03-21T11:52:42;4.25;;;2.58;;
23390;SDS011;11868;45.606;5.302;2023-03-21T11:58:12;3.63;;;2.10;;
23390;SDS011;11868;45.606;5.302;2023-03-21T12:01:04;5.03;;;2.30;;
23390;SDS011;11868;45.606;5.302;2023-03-21T12:06:14;2.60;;;1.77;;
23390;SDS011;11868;45.606;5.302;2023-03-21T12:16:59;3.33;;;1.70;;
23390;SDS011;11868;45.606;5.302;2023-03-21T12:19:38;8.13;;;2.10;;
23390;SDS011;11868;45.606;5.302;2023-03-21T12:24:55;5.47;;;2.10;;
23390;SDS011;11868;45.606;5.302;2023-03-21T12:30:50;4.43;;;2.60;;
23390;SDS011;11868;45.606;5.302;2023-03-21T12:41:32;4.82;;;2.42;;
23390;SDS011;11868;45.606;5.302;2023-03-21T12:46:38;4.28;;;1.92;;
23390;SDS011;11868;45.606;5.302;2023-03-21T12:49:29;3.50;;;1.95;;
23390;SDS011;11868;45.606;5.302;2023-03-21T12:52:01;3.13;;;1.70;;
23390;SDS011;11868;45.606;5.302;2023-03-21T12:54:38;3.15;;;2.10;;
23390;SDS011;11868;45.606;5.302;2023-03-21T13:00:16;4.15;;;2.00;;
23390;SDS011;11868;45.606;5.302;2023-03-21T13:02:53;3.35;;;1.98;;
23390;SDS011;11868;45.606;5.302;2023-03-21T13:08:27;3.53;;;2.15;;
23390;SDS011;11868;45.606;5.302;2023-03-21T13:10:54;2.83;;;1.70;;
23390;SDS011;11868;45.606;5.302;2023-03-21T13:13:25;5.35;;;1.77;;
23390;SDS011;11868;45.606;5.302;2023-03-21T13:16:06;4.47;;;2.08;;
23390;SDS011;11868;45.606;5.302;2023-03-21T13:27:06;2.00;;;1.33;;
23390;SDS011;11868;45.606;5.302;2023-03-21T13:35:22;3.45;;;1.30;;
23390;SDS011;11868;45.606;5.302;2023-03-21T13:38:05;3.10;;;1.40;;
23390;SDS011;11868;45.606;5.302;2023-03-21T13:43:21;2.05;;;1.40;;
23390;SDS011;11868;45.606;5.302;2023-03-21T13:46:11;2.85;;;1.10;;
23390;SDS011;11868;45.606;5.302;2023-03-21T13:54:41;1.83;;;1.00;;
23390;SDS011;11868;45.606;5.302;2023-03-21T13:59:10;2.47;;;1.20;;
23390;SDS011;11868;45.606;5.302;2023-03-21T14:01:37;4.53;;;1.30;;
23390;SDS011;11868;45.606;5.302;2023-03-21T14:04:22;2.90;;;1.33;;
23390;SDS011;11868;45.606;5.302;2023-03-21T14:09:34;1.77;;;1.00;;
23390;SDS011;11868;45.606;5.302;2023-03-21T14:12:00;2.88;;;1.20;;
23390;SDS011;11868;45.606;5.302;2023-03-21T14:14:32;2.45;;;1.30;;
23390;SDS011;11868;45.606;5.302;2023-03-21T14:17:14;6.70;;;1.77;;
23390;SDS011;11868;45.606;5.302;2023-03-21T14:19:57;2.90;;;1.30;;
23390;SDS011;11868;45.606;5.302;2023-03-21T14:22:25;3.00;;;1.35;;
23390;SDS011;11868;45.606;5.302;2023-03-21T14:24:55;1.90;;;0.90;;
23390;SDS011;11868;45.606;5.302;2023-03-21T14:27:25;6.90;;;1.40;;
23390;SDS011;11868;45.606;5.302;2023-03-21T14:29:54;3.88;;;1.20;;
23390;SDS011;11868;45.606;5.302;2023-03-21T14:32:21;4.15;;;1.33;;
23390;SDS011;11868;45.606;5.302;2023-03-21T14:34:48;3.63;;;1.30;;
23390;SDS011;11868;45.606;5.302;2023-03-21T14:37:30;3.22;;;1.15;;
23390;SDS011;11868;45.606;5.302;2023-03-21T14:40:16;3.45;;;1.30;;
23390;SDS011;11868;45.606;5.302;2023-03-21T14:42:45;1.67;;;1.08;;
23390;SDS011;11868;45.606;5.302;2023-03-21T14:45:27;3.17;;;1.00;;
23390;SDS011;11868;45.606;5.302;2023-03-21T14:52:52;3.78;;;1.48;;
23390;SDS011;11868;45.606;5.302;2023-03-21T14:55:18;3.67;;;1.45;;
23390;SDS011;11868;45.606;5.302;2023-03-21T14:57:43;2.13;;;1.00;;
23390;SDS011;11868;45.606;5.302;2023-03-21T15:00:21;2.42;;;1.05;;
23390;SDS011;11868;45.606;5.302;2023-03-21T15:02:48;3.15;;;1.23;;
23390;SDS011;11868;45.606;5.302;2023-03-21T15:05:25;4.03;;;1.20;;
23390;SDS011;11868;45.606;5.302;2023-03-21T15:08:34;4.47;;;1.25;;
23390;SDS011;11868;45.606;5.302;2023-03-21T15:10:45;2.92;;;1.33;;
23390;SDS011;11868;45.606;5.302;2023-03-21T15:13:49;3.92;;;1.33;;
23390;SDS011;11868;45.606;5.302;2023-03-21T15:16:19;5.47;;;1.10;;
23390;SDS011;11868;45.606;5.302;2023-03-21T15:18:44;3.60;;;1.20;;
23390;SDS011;11868;45.606;5.302;2023-03-21T15:21:15;5.05;;;1.48;;
23390;SDS011;11868;45.606;5.302;2023-03-21T15:23:44;2.75;;;1.27;;
23390;SDS011;11868;45.606;5.302;2023-03-21T15:26:14;2.92;;;1.33;;
23390;SDS011;11868;45.606;5.302;2023-03-21T15:28:41;7.85;;;1.50;;
23390;SDS011;11868;45.606;5.302;2023-03-21T15:31:19;4.47;;;1.30;;
23390;SDS011;11868;45.606;5.302;2023-03-21T15:33:49;2.05;;;1.08;;
23390;SDS011;11868;45.606;5.302;2023-03-21T15:36:32;4.20;;;1.23;;
23390;SDS011;11868;45.606;5.302;2023-03-21T15:39:05;3.15;;;1.23;;
23390;SDS011;11868;45.606;5.302;2023-03-21T15:41:32;2.28;;;1.10;;
23390;SDS011;11868;45.606;5.302;2023-03-21T15:49:27;1.50;;;1.00;;
